Time;durP1;ratioP1;P1;durP2;ratioP2;P2;SDS_P1;SDS_P2;PMS_P1;PMS_P2;Temp;Humidity;BMP_temperature;BMP_pressure;BME280_temperature;BME280_humidity;BME280_pressure;Samples;Min_cycle;Max_cycle;Signal;HPM_P1;HPM_P2
2024/01/23 00:00:37;;;;;;;24.65;6.63;;;5.90;99.90;;;;;;5133245;27;20085;-77
2024/01/23 00:03:03;;;;;;;26.90;5.70;;;5.90;99.90;;;;;;5113858;27;20094;-80
2024/01/23 00:05:28;;;;;;;26.90;5.57;;;5.90;99.90;;;;;;5133366;27;20096;-79
2024/01/23 00:07:54;;;;;;;29.25;5.88;;;5.80;99.90;;;;;;5132948;27;20047;-81
2024/01/23 00:10:22;;;;;;;32.72;6.75;;;5.80;99.90;;;;;;5132824;27;20043;-77
2024/01/23 00:12:48;;;;;;;37.60;5.97;;;5.90;99.90;;;;;;5132030;27;20096;-76
2024/01/23 00:15:14;;;;;;;28.48;5.97;;;5.90;99.90;;;;;;5132699;27;20039;-77
2024/01/23 00:17:40;;;;;;;38.45;4.55;;;5.90;99.90;;;;;;5113941;27;20047;-76
2024/01/23 00:20:07;;;;;;;27.48;4.57;;;5.90;99.90;;;;;;5132911;27;20130;-75
2024/01/23 00:22:33;;;;;;;32.47;6.50;;;5.90;99.90;;;;;;5132780;27;20043;-78
2024/01/23 00:24:59;;;;;;;29.58;4.70;;;5.90;99.90;;;;;;5132159;27;20054;-75
2024/01/23 00:27:25;;;;;;;32.67;6.50;;;5.90;99.90;;;;;;5132189;27;20901;-78
2024/01/23 00:29:51;;;;;;;34.33;4.95;;;5.90;99.90;;;;;;5132501;27;20043;-82
2024/01/23 00:32:17;;;;;;;50.97;7.70;;;5.90;99.90;;;;;;5114150;27;20136;-77
2024/01/23 00:34:43;;;;;;;29.67;6.93;;;5.90;99.90;;;;;;5132444;27;20550;-77
2024/01/23 00:37:09;;;;;;;48.03;8.10;;;5.80;99.90;;;;;;5132316;27;20122;-76
2024/01/23 00:39:38;;;;;;;29.13;5.78;;;5.90;99.90;;;;;;5114262;27;20047;-80
2024/01/23 00:42:08;;;;;;;26.90;5.75;;;5.80;99.90;;;;;;5132178;27;20051;-76
2024/01/23 00:44:34;;;;;;;22.38;4.25;;;5.80;99.90;;;;;;5114297;28;20429;-78
2024/01/23 00:47:00;;;;;;;24.02;5.30;;;5.90;99.90;;;;;;5132256;27;20050;-79
2024/01/23 00:49:26;;;;;;;23.98;5.22;;;5.80;99.90;;;;;;5113972;28;20097;-76
2024/01/23 00:51:51;;;;;;;31.08;5.57;;;5.80;99.90;;;;;;5132637;27;20066;-79
2024/01/23 00:54:17;;;;;;;26.20;4.43;;;5.80;99.90;;;;;;5113832;28;20097;-76
2024/01/23 00:56:43;;;;;;;40.85;5.72;;;5.80;99.90;;;;;;5096722;28;20108;-77
2024/01/23 00:59:12;;;;;;;26.80;5.80;;;5.80;99.90;;;;;;5131936;28;20467;-78
2024/01/23 01:01:39;;;;;;;42.28;4.57;;;5.80;99.90;;;;;;5132068;28;20084;-78
2024/01/23 01:04:05;;;;;;;38.17;7.88;;;5.70;99.90;;;;;;5113142;28;20061;-79
2024/01/23 01:06:31;;;;;;;22.48;5.10;;;5.70;99.90;;;;;;5113190;28;20456;-77
2024/01/23 01:08:58;;;;;;;25.38;6.13;;;5.70;99.90;;;;;;5131968;28;20055;-79
2024/01/23 01:11:24;;;;;;;26.08;5.13;;;5.60;99.90;;;;;;5113597;28;20402;-79
2024/01/23 01:13:49;;;;;;;24.60;5.57;;;5.60;99.90;;;;;;5131519;28;20498;-78
2024/01/23 01:16:15;;;;;;;34.70;6.05;;;5.60;99.90;;;;;;5132003;28;20047;-77
2024/01/23 01:18:41;;;;;;;30.13;5.97;;;5.70;99.90;;;;;;5131980;28;20065;-76
2024/01/23 01:21:08;;;;;;;26.30;5.03;;;5.60;99.90;;;;;;5131852;28;20073;-78
2024/01/23 01:23:35;;;;;;;32.53;5.47;;;5.70;99.90;;;;;;5131436;28;20055;-77
2024/01/23 01:26:01;;;;;;;29.52;6.15;;;5.60;99.90;;;;;;5135245;27;20043;-78
2024/01/23 01:28:27;;;;;;;20.67;5.00;;;5.60;99.90;;;;;;5135852;27;20051;-78
2024/01/23 01:30:53;;;;;;;36.22;6.22;;;5.60;99.90;;;;;;5136019;27;20114;-80
2024/01/23 01:33:19;;;;;;;27.45;6.10;;;5.70;99.90;;;;;;5136117;27;20531;-77
2024/01/23 01:35:45;;;;;;;24.05;4.95;;;5.60;99.90;;;;;;5135768;27;20050;-83
2024/01/23 01:38:11;;;;;;;27.42;5.30;;;5.60;99.90;;;;;;5117429;27;20047;-78
2024/01/23 01:40:36;;;;;;;26.27;4.70;;;5.60;99.90;;;;;;5117655;27;20487;-77
2024/01/23 01:43:02;;;;;;;30.45;5.13;;;5.60;99.90;;;;;;5135662;27;20055;-80
2024/01/23 01:45:28;;;;;;;34.42;5.40;;;5.60;99.90;;;;;;5116970;27;20054;-77
2024/01/23 01:47:56;;;;;;;24.52;5.40;;;5.60;99.90;;;;;;5116909;27;20093;-79
2024/01/23 01:50:23;;;;;;;25.27;5.63;;;5.60;99.90;;;;;;5135288;27;20858;-77
2024/01/23 01:52:49;;;;;;;26.00;6.28;;;5.60;99.90;;;;;;5135420;27;20363;-79
2024/01/23 01:55:15;;;;;;;29.38;5.00;;;5.60;99.90;;;;;;5116717;27;20043;-83
2024/01/23 01:57:41;;;;;;;35.08;5.50;;;5.60;99.90;;;;;;5135414;27;20100;-77
2024/01/23 02:00:08;;;;;;;23.98;4.38;;;5.60;99.90;;;;;;5116882;27;20043;-78
2024/01/23 02:02:40;;;;;;;24.38;4.68;;;5.60;99.90;;;;;;5116759;27;20692;-81
2024/01/23 02:05:06;;;;;;;34.67;5.45;;;5.60;99.90;;;;;;5116697;27;20122;-77
2024/01/23 02:07:33;;;;;;;34.10;6.20;;;5.60;99.90;;;;;;5135011;27;20161;-78
2024/01/23 02:10:00;;;;;;;33.05;6.65;;;5.70;99.90;;;;;;5116539;27;20130;-80
2024/01/23 02:12:25;;;;;;;32.75;6.35;;;5.80;99.90;;;;;;5135022;27;20077;-76
2024/01/23 02:14:51;;;;;;;38.08;6.50;;;5.80;99.90;;;;;;5135713;27;20075;-76
2024/01/23 02:17:16;;;;;;;30.58;7.22;;;5.90;99.90;;;;;;5135155;27;20073;-83
2024/01/23 02:19:42;;;;;;;28.30;6.50;;;5.90;99.90;;;;;;5116190;27;20424;-78
2024/01/23 02:22:08;;;;;;;37.80;7.00;;;5.80;99.90;;;;;;5116246;27;20039;-81
2024/01/23 02:24:34;;;;;;;26.40;5.07;;;5.90;99.90;;;;;;5135295;27;20047;-78
2024/01/23 02:27:00;;;;;;;36.38;7.65;;;5.90;99.90;;;;;;5135078;27;20043;-81
2024/01/23 02:29:26;;;;;;;31.00;6.35;;;5.90;99.90;;;;;;5116300;27;20501;-78
2024/01/23 02:31:51;;;;;;;35.80;8.07;;;5.90;99.90;;;;;;5116686;27;20738;-79
2024/01/23 02:34:17;;;;;;;35.33;7.00;;;5.90;99.90;;;;;;5116085;27;20058;-78
2024/01/23 02:36:43;;;;;;;41.65;5.68;;;5.90;99.90;;;;;;5115222;27;20054;-79
2024/01/23 02:39:09;;;;;;;34.55;7.68;;;5.80;99.90;;;;;;5134852;27;20130;-83
2024/01/23 02:41:35;;;;;;;39.05;7.25;;;5.90;99.90;;;;;;5134155;27;20153;-81
2024/01/23 02:44:00;;;;;;;34.08;6.93;;;5.90;99.90;;;;;;5116231;27;20043;-80
2024/01/23 02:46:26;;;;;;;29.65;6.07;;;6.00;99.90;;;;;;5134336;27;20066;-79
2024/01/23 02:48:52;;;;;;;34.47;6.22;;;5.90;99.90;;;;;;5134333;27;20142;-81
2024/01/23 02:51:21;;;;;;;32.22;6.22;;;5.90;99.90;;;;;;5134341;27;20058;-79
2024/01/23 02:53:47;;;;;;;36.30;7.95;;;5.80;99.90;;;;;;5134681;27;20047;-76
2024/01/23 02:56:13;;;;;;;35.22;8.85;;;5.90;99.90;;;;;;5134483;27;20071;-78
2024/01/23 02:58:42;;;;;;;36.78;7.82;;;5.80;99.90;;;;;;5134270;27;20062;-82
2024/01/23 03:01:08;;;;;;;37.05;5.60;;;5.80;99.90;;;;;;5133960;27;20060;-82
2024/01/23 03:03:34;;;;;;;33.05;6.47;;;5.80;99.90;;;;;;5133692;27;20043;-80
2024/01/23 03:06:00;;;;;;;30.38;7.93;;;5.80;99.90;;;;;;5133901;27;20066;-81
2024/01/23 03:08:25;;;;;;;29.08;6.35;;;5.80;99.90;;;;;;5115513;27;20126;-82
2024/01/23 03:10:51;;;;;;;29.52;5.07;;;5.80;99.90;;;;;;5133877;27;20074;-77
2024/01/23 03:13:17;;;;;;;36.10;7.78;;;5.80;99.90;;;;;;5134039;27;20043;-77
2024/01/23 03:15:42;;;;;;;36.60;6.80;;;5.90;99.90;;;;;;5115066;27;20055;-81
2024/01/23 03:18:08;;;;;;;35.17;5.90;;;5.90;99.90;;;;;;5133284;27;20051;-81
2024/01/23 03:20:34;;;;;;;34.65;7.13;;;6.00;99.90;;;;;;5133741;27;20122;-81
2024/01/23 03:23:00;;;;;;;41.03;7.05;;;6.00;99.90;;;;;;5133559;27;20384;-80
2024/01/23 03:25:26;;;;;;;34.25;7.43;;;6.00;99.90;;;;;;5133537;27;20054;-84
2024/01/23 03:27:52;;;;;;;26.40;5.57;;;6.00;99.90;;;;;;5133818;27;20046;-81
2024/01/23 03:30:31;;;;;;;34.70;5.72;;;6.00;99.90;;;;;;5114879;27;20084;-76
2024/01/23 03:32:58;;;;;;;40.50;7.35;;;6.10;99.90;;;;;;5114930;27;20105;-83
2024/01/23 03:35:24;;;;;;;35.45;6.60;;;6.00;99.90;;;;;;5115030;27;20483;-82
2024/01/23 03:37:51;;;;;;;35.30;7.38;;;6.10;99.90;;;;;;5133684;27;20043;-84
2024/01/23 03:40:17;;;;;;;37.15;6.97;;;6.10;99.90;;;;;;5133266;27;20129;-82
2024/01/23 03:42:43;;;;;;;36.75;6.53;;;6.20;99.90;;;;;;5114946;27;20143;-79
2024/01/23 03:45:08;;;;;;;39.50;8.07;;;6.20;99.90;;;;;;5133400;27;20051;-79
2024/01/23 03:47:35;;;;;;;35.00;7.63;;;6.20;99.90;;;;;;5133020;27;20047;-78
2024/01/23 03:50:01;;;;;;;31.55;6.25;;;6.20;99.90;;;;;;5133333;27;20051;-79
2024/01/23 03:52:28;;;;;;;30.77;8.20;;;6.20;99.90;;;;;;5114584;27;20059;-82
2024/01/23 03:54:53;;;;;;;33.92;6.90;;;6.10;99.90;;;;;;5133053;27;20055;-80
2024/01/23 03:57:19;;;;;;;42.38;6.93;;;6.20;99.90;;;;;;5133091;27;20050;-80
2024/01/23 03:59:46;;;;;;;39.88;8.07;;;6.20;99.90;;;;;;5132866;27;20046;-79
2024/01/23 04:02:12;;;;;;;37.78;6.85;;;6.20;99.90;;;;;;5114504;27;20473;-80
2024/01/23 04:04:41;;;;;;;39.90;7.60;;;6.10;99.90;;;;;;5132647;27;20083;-80
2024/01/23 04:07:07;;;;;;;45.45;8.88;;;6.10;99.90;;;;;;5132772;27;20066;-83
2024/01/23 04:09:32;;;;;;;31.27;6.43;;;6.10;99.90;;;;;;5132802;27;20494;-75
2024/01/23 04:11:58;;;;;;;31.13;6.45;;;6.10;99.90;;;;;;5114861;27;20332;-80
2024/01/23 04:14:24;;;;;;;40.38;6.03;;;6.10;99.90;;;;;;5114679;27;20119;-81
2024/01/23 04:16:49;;;;;;;31.75;7.75;;;6.10;99.90;;;;;;5132614;27;20046;-83
2024/01/23 04:19:15;;;;;;;47.03;9.90;;;6.10;99.90;;;;;;5132856;27;20039;-81
2024/01/23 04:21:41;;;;;;;35.60;6.63;;;6.00;99.90;;;;;;5132402;27;20111;-82
2024/01/23 04:24:07;;;;;;;39.30;7.22;;;6.10;99.90;;;;;;5132771;27;20043;-78
2024/01/23 04:26:33;;;;;;;29.25;7.15;;;6.00;99.90;;;;;;5114205;27;20051;-79
2024/01/23 04:28:58;;;;;;;31.77;5.50;;;6.10;99.90;;;;;;5132637;27;20562;-79
2024/01/23 04:31:25;;;;;;;40.78;7.18;;;6.10;99.90;;;;;;5132720;27;20134;-79
2024/01/23 04:33:52;;;;;;;37.22;8.07;;;6.10;99.90;;;;;;5132722;27;20095;-84
2024/01/23 04:36:17;;;;;;;39.55;7.20;;;6.10;99.90;;;;;;5132108;27;20566;-84
2024/01/23 04:38:43;;;;;;;51.38;10.10;;;6.10;99.90;;;;;;5132559;27;20139;-83
2024/01/23 04:41:09;;;;;;;54.03;9.77;;;6.10;99.90;;;;;;5114322;27;20043;-82
2024/01/23 04:43:36;;;;;;;42.83;7.70;;;6.10;99.90;;;;;;5132667;27;20051;-84
2024/01/23 04:46:01;;;;;;;32.60;6.95;;;6.10;99.90;;;;;;5113850;27;20107;-82
2024/01/23 04:48:27;;;;;;;37.65;7.75;;;6.20;99.90;;;;;;5132088;27;20054;-80
2024/01/23 04:50:53;;;;;;;30.73;7.28;;;6.20;99.90;;;;;;5132175;27;20062;-83
2024/01/23 04:53:19;;;;;;;43.25;8.80;;;6.20;99.90;;;;;;5132075;27;20082;-82
2024/01/23 04:55:44;;;;;;;41.30;8.35;;;6.20;99.90;;;;;;5132006;27;20051;-83
2024/01/23 04:58:10;;;;;;;36.15;7.53;;;6.10;99.90;;;;;;5132181;28;20121;-84
2024/01/23 05:00:35;;;;;;;46.00;8.25;;;6.10;99.90;;;;;;5131911;27;20050;-83
2024/01/23 05:03:04;;;;;;;48.10;7.95;;;6.10;99.90;;;;;;5109820;28;20060;-82
2024/01/23 05:05:31;;;;;;;39.50;6.60;;;6.10;99.90;;;;;;5111456;28;20487;-84
2024/01/23 05:07:56;;;;;;;44.60;8.57;;;6.10;99.90;;;;;;5109924;28;20098;-82
2024/01/23 05:10:22;;;;;;;43.85;7.97;;;6.00;99.90;;;;;;5111163;28;20083;-75
2024/01/23 05:12:48;;;;;;;42.65;8.90;;;6.00;99.90;;;;;;5111435;28;20105;-82
2024/01/23 05:15:14;;;;;;;50.05;7.82;;;6.00;99.90;;;;;;5111579;28;20043;-81
2024/01/23 05:17:39;;;;;;;43.90;8.15;;;5.90;99.90;;;;;;5111014;28;20047;-83
2024/01/23 05:20:06;;;;;;;52.95;8.48;;;5.90;99.90;;;;;;5110192;28;20060;-83
2024/01/23 05:22:31;;;;;;;37.83;9.00;;;5.80;99.90;;;;;;5110110;28;20051;-76
2024/01/23 05:24:57;;;;;;;43.67;10.10;;;5.80;99.90;;;;;;5111209;28;20049;-84
2024/01/23 05:27:23;;;;;;;38.38;8.18;;;5.70;99.90;;;;;;5111367;28;20086;-80
2024/01/23 05:29:49;;;;;;;53.22;11.13;;;5.70;99.90;;;;;;5111375;28;20059;-79
2024/01/23 05:32:14;;;;;;;38.70;8.05;;;5.70;99.90;;;;;;5109698;28;20056;-81
2024/01/23 05:34:40;;;;;;;52.40;9.50;;;5.70;99.90;;;;;;5111323;28;20047;-83
2024/01/23 05:37:06;;;;;;;44.13;7.43;;;5.70;99.90;;;;;;5109877;28;20138;-82
2024/01/23 05:39:38;;;;;;;55.53;9.13;;;5.60;99.90;;;;;;5110294;28;20047;-83
2024/01/23 05:42:05;;;;;;;49.80;8.23;;;5.60;99.90;;;;;;5110793;28;20495;-81
2024/01/23 05:44:32;;;;;;;52.22;10.27;;;5.60;99.90;;;;;;5111266;28;20104;-81
2024/01/23 05:46:58;;;;;;;43.40;8.90;;;5.60;99.90;;;;;;5109398;28;20063;-77
2024/01/23 05:49:24;;;;;;;51.08;9.65;;;5.60;99.90;;;;;;5111625;28;20047;-76
2024/01/23 05:51:50;;;;;;;40.95;8.20;;;5.60;99.90;;;;;;5109922;28;20069;-83
2024/01/23 05:54:15;;;;;;;47.22;10.27;;;5.60;99.90;;;;;;5092409;28;20036;-82
2024/01/23 05:56:41;;;;;;;46.45;10.18;;;5.60;99.90;;;;;;5109583;28;20055;-79
2024/01/23 05:59:07;;;;;;;39.30;8.35;;;5.60;99.90;;;;;;5110975;28;20399;-82
2024/01/23 06:01:33;;;;;;;42.78;7.85;;;5.60;99.90;;;;;;5109906;28;20090;-83
2024/01/23 06:04:00;;;;;;;45.45;9.02;;;5.60;99.90;;;;;;5110852;28;20050;-78
2024/01/23 06:06:26;;;;;;;57.28;9.25;;;5.60;99.90;;;;;;5110990;28;20486;-78
2024/01/23 06:08:52;;;;;;;41.88;9.32;;;5.50;99.90;;;;;;5109358;28;20138;-77
2024/01/23 06:11:18;;;;;;;45.75;9.25;;;5.60;99.90;;;;;;5110390;28;20138;-78
2024/01/23 06:13:44;;;;;;;47.83;9.48;;;5.50;99.90;;;;;;5115074;28;20071;-82
2024/01/23 06:16:10;;;;;;;52.35;8.77;;;5.50;99.90;;;;;;5113232;28;20096;-81
2024/01/23 06:18:36;;;;;;;47.60;8.65;;;5.60;99.90;;;;;;5114701;28;20399;-81
2024/01/23 06:21:05;;;;;;;51.92;10.95;;;5.50;99.90;;;;;;5112877;28;20054;-83
2024/01/23 06:23:31;;;;;;;50.08;10.15;;;5.50;99.90;;;;;;5114391;28;20083;-80
2024/01/23 06:25:57;;;;;;;39.33;7.70;;;5.50;99.90;;;;;;5114524;28;20090;-79
2024/01/23 06:28:24;;;;;;;61.50;9.50;;;5.50;99.90;;;;;;5114918;28;20087;-76
2024/01/23 06:30:49;;;;;;;46.10;10.10;;;5.50;99.90;;;;;;5116887;28;20081;-77
2024/01/23 06:33:15;;;;;;;61.00;13.27;;;5.50;99.90;;;;;;5114747;28;20044;-76
2024/01/23 06:35:41;;;;;;;37.67;8.15;;;5.50;99.90;;;;;;5114619;28;20075;-77
2024/01/23 06:38:07;;;;;;;42.10;9.20;;;5.50;99.90;;;;;;5114621;28;20195;-77
2024/01/23 06:40:32;;;;;;;50.55;9.35;;;5.50;99.90;;;;;;5112802;28;20081;-78
2024/01/23 06:42:58;;;;;;;45.35;8.63;;;5.50;99.90;;;;;;5112487;28;20063;-78
2024/01/23 06:45:24;;;;;;;49.30;10.35;;;5.40;99.90;;;;;;5114186;27;20048;-75
2024/01/23 06:47:49;;;;;;;52.17;8.70;;;5.40;99.90;;;;;;5114485;28;20075;-75
2024/01/23 06:50:16;;;;;;;50.33;10.38;;;5.40;99.90;;;;;;5113690;28;20050;-79
2024/01/23 06:52:41;;;;;;;42.72;8.90;;;5.40;99.90;;;;;;5112450;28;20054;-77
2024/01/23 06:55:07;;;;;;;52.28;10.50;;;5.50;99.90;;;;;;5112266;28;20044;-78
2024/01/23 06:57:33;;;;;;;39.72;9.20;;;5.50;99.90;;;;;;5112061;28;20518;-78
2024/01/23 06:59:59;;;;;;;52.08;8.60;;;5.50;99.90;;;;;;5112114;28;20051;-76
2024/01/23 07:02:24;;;;;;;55.80;8.63;;;5.50;99.90;;;;;;5113293;28;20052;-77
2024/01/23 07:04:50;;;;;;;85.05;12.90;;;5.50;99.90;;;;;;5111696;28;20056;-75
2024/01/23 07:07:18;;;;;;;56.83;9.50;;;5.50;99.90;;;;;;5111870;28;20044;-76
2024/01/23 07:09:44;;;;;;;44.38;8.45;;;5.50;99.90;;;;;;5113683;28;20084;-77
2024/01/23 07:12:09;;;;;;;49.20;8.95;;;5.40;99.90;;;;;;5113406;28;20449;-79
2024/01/23 07:14:35;;;;;;;58.15;9.98;;;5.40;99.90;;;;;;5113489;28;20059;-80
2024/01/23 07:17:01;;;;;;;56.50;9.02;;;5.40;99.90;;;;;;5113249;28;20055;-76
2024/01/23 07:19:26;;;;;;;63.85;10.38;;;5.40;99.90;;;;;;5113535;28;20048;-77
2024/01/23 07:21:52;;;;;;;60.10;11.60;;;5.40;99.90;;;;;;5113036;28;20457;-76
2024/01/23 07:24:18;;;;;;;54.30;8.35;;;5.40;99.90;;;;;;5112090;28;20134;-79
2024/01/23 07:26:44;;;;;;;53.08;10.23;;;5.30;99.90;;;;;;5111735;28;20055;-79
2024/01/23 07:29:09;;;;;;;62.60;9.95;;;5.30;99.90;;;;;;5113247;28;20051;-80
2024/01/23 07:31:35;;;;;;;56.13;10.50;;;5.30;99.90;;;;;;5111793;28;20075;-77
2024/01/23 07:34:01;;;;;;;60.10;12.98;;;5.20;99.90;;;;;;5112909;28;20044;-78
2024/01/23 07:36:27;;;;;;;48.17;9.35;;;5.30;99.90;;;;;;5112672;28;20396;-79
2024/01/23 07:38:52;;;;;;;52.50;9.20;;;5.20;99.90;;;;;;5112881;28;20052;-79
2024/01/23 07:41:18;;;;;;;56.28;9.45;;;5.30;99.90;;;;;;5112900;28;20151;-77
2024/01/23 07:43:44;;;;;;;54.72;8.50;;;5.30;99.90;;;;;;5112889;28;20058;-81
2024/01/23 07:46:09;;;;;;;45.78;9.00;;;5.30;99.90;;;;;;5112533;28;20112;-76
2024/01/23 07:48:35;;;;;;;50.25;8.52;;;5.30;99.90;;;;;;5094280;28;20044;-76
2024/01/23 07:51:01;;;;;;;41.40;7.43;;;5.30;99.90;;;;;;5112932;28;20585;-79
2024/01/23 07:53:29;;;;;;;49.92;10.15;;;5.30;99.90;;;;;;5112527;28;20057;-76
2024/01/23 07:55:54;;;;;;;48.08;9.93;;;5.30;99.90;;;;;;5112599;28;20127;-78
2024/01/23 07:58:20;;;;;;;42.85;8.85;;;5.30;99.90;;;;;;5112777;28;20131;-78
2024/01/23 08:00:46;;;;;;;57.92;10.27;;;5.30;99.90;;;;;;5112662;28;20486;-76
2024/01/23 08:03:11;;;;;;;42.20;11.70;;;5.30;99.90;;;;;;5110677;28;20131;-75
2024/01/23 08:05:37;;;;;;;52.38;10.05;;;5.30;99.90;;;;;;5112363;28;20067;-75
2024/01/23 08:08:03;;;;;;;51.78;11.07;;;5.30;99.90;;;;;;5112254;28;20055;-73
2024/01/23 08:10:30;;;;;;;49.15;8.48;;;5.30;99.90;;;;;;5112388;28;20044;-78
2024/01/23 08:12:56;;;;;;;48.70;9.38;;;5.30;99.90;;;;;;5111272;28;20059;-75
2024/01/23 08:15:23;;;;;;;63.22;11.18;;;5.30;99.90;;;;;;5111001;28;20058;-78
2024/01/23 08:17:49;;;;;;;63.08;10.13;;;5.30;99.90;;;;;;5110808;28;20044;-80
2024/01/23 08:20:15;;;;;;;62.88;11.13;;;5.30;99.90;;;;;;5112153;28;20040;-78
2024/01/23 08:22:41;;;;;;;46.72;10.48;;;5.30;99.90;;;;;;5111143;28;20113;-79
2024/01/23 08:25:08;;;;;;;44.10;9.50;;;5.30;99.90;;;;;;5112564;28;20140;-77
2024/01/23 08:27:33;;;;;;;40.90;8.75;;;5.30;99.90;;;;;;5110680;28;20105;-79
2024/01/23 08:29:59;;;;;;;47.38;9.57;;;5.40;99.90;;;;;;5111969;28;20055;-79
2024/01/23 08:32:25;;;;;;;41.53;7.75;;;5.40;99.90;;;;;;5110930;28;20051;-77
2024/01/23 08:34:51;;;;;;;44.50;9.68;;;5.40;99.90;;;;;;5111063;28;20134;-77
2024/01/23 08:37:17;;;;;;;42.67;8.00;;;5.50;99.90;;;;;;5111633;28;20484;-77
2024/01/23 08:39:42;;;;;;;59.45;10.10;;;5.50;99.90;;;;;;5110671;28;20051;-75
2024/01/23 08:42:08;;;;;;;54.22;9.43;;;5.60;99.90;;;;;;5111578;28;20134;-82
2024/01/23 08:44:35;;;;;;;45.70;9.77;;;5.60;99.90;;;;;;5111556;28;20048;-84
2024/01/23 08:47:02;;;;;;;40.83;7.35;;;5.60;99.90;;;;;;5111870;28;20112;-79
2024/01/23 08:49:27;;;;;;;55.28;10.20;;;5.60;99.90;;;;;;5109766;28;20048;-79
2024/01/23 08:51:53;;;;;;;62.90;9.85;;;5.60;99.90;;;;;;5111631;28;20119;-79
2024/01/23 08:54:19;;;;;;;53.58;7.45;;;5.60;99.90;;;;;;5111676;28;20173;-79
2024/01/23 08:56:49;;;;;;;49.38;8.88;;;5.60;99.90;;;;;;5111275;28;20108;-75
2024/01/23 08:59:15;;;;;;;47.35;9.98;;;5.60;99.90;;;;;;5110122;28;20050;-77
2024/01/23 09:01:41;;;;;;;49.60;10.43;;;5.70;99.90;;;;;;5093024;28;20456;-76
2024/01/23 09:04:07;;;;;;;43.83;8.15;;;5.70;99.90;;;;;;5111222;28;20048;-77
2024/01/23 09:06:33;;;;;;;43.03;8.48;;;5.80;99.90;;;;;;5111331;28;20456;-82
2024/01/23 09:08:59;;;;;;;52.13;10.73;;;5.80;99.90;;;;;;5111734;28;20130;-78
2024/01/23 09:11:24;;;;;;;59.00;9.35;;;5.90;99.90;;;;;;5111454;28;20054;-77
2024/01/23 09:13:50;;;;;;;49.13;9.27;;;5.90;99.90;;;;;;5111400;28;20128;-79
2024/01/23 09:16:16;;;;;;;40.25;9.02;;;5.90;99.90;;;;;;5109866;28;20476;-75
2024/01/23 09:18:44;;;;;;;46.05;9.35;;;5.90;99.90;;;;;;5092908;28;20056;-77
2024/01/23 09:21:10;;;;;;;71.90;11.27;;;6.00;99.90;;;;;;5092680;28;20483;-75
2024/01/23 09:23:39;;;;;;;32.13;6.88;;;6.00;99.90;;;;;;5092782;28;20054;-79
2024/01/23 09:26:04;;;;;;;51.85;10.85;;;6.10;99.90;;;;;;5092620;28;20547;-80
2024/01/23 09:28:30;;;;;;;47.08;10.38;;;6.10;99.90;;;;;;5111447;28;20046;-74
2024/01/23 09:30:56;;;;;;;47.58;11.02;;;6.20;99.90;;;;;;5111306;28;20133;-79
2024/01/23 09:33:21;;;;;;;44.33;10.38;;;6.20;99.90;;;;;;5111131;28;20058;-80
2024/01/23 09:35:48;;;;;;;33.13;6.82;;;6.20;99.90;;;;;;5109869;28;20406;-81
2024/01/23 09:38:14;;;;;;;41.53;8.00;;;6.30;99.90;;;;;;5111494;28;20127;-79
2024/01/23 09:40:41;;;;;;;39.17;7.60;;;6.40;99.90;;;;;;5111056;28;20048;-80
2024/01/23 09:43:11;;;;;;;51.50;10.32;;;6.50;99.90;;;;;;5111195;28;20131;-82
2024/01/23 09:45:39;;;;;;;51.25;9.30;;;6.60;99.90;;;;;;5111023;28;20056;-80
2024/01/23 09:48:05;;;;;;;44.22;8.38;;;6.60;99.90;;;;;;5114048;28;20055;-82
2024/01/23 09:50:33;;;;;;;43.03;7.07;;;6.50;99.90;;;;;;5115218;28;20130;-80
2024/01/23 09:52:59;;;;;;;43.97;8.85;;;6.40;99.90;;;;;;5113606;28;20054;-81
2024/01/23 09:55:25;;;;;;;42.25;7.75;;;6.30;99.90;;;;;;5114883;28;20399;-79
2024/01/23 09:57:51;;;;;;;53.25;10.63;;;6.40;99.90;;;;;;5115388;28;20048;-77
2024/01/23 10:00:18;;;;;;;39.45;8.27;;;6.50;99.90;;;;;;5115160;28;20054;-78
2024/01/23 10:02:44;;;;;;;54.85;10.52;;;6.60;99.90;;;;;;5115264;28;20051;-79
2024/01/23 10:05:18;;;;;;;36.95;7.53;;;6.70;99.90;;;;;;5114439;28;20105;-77
2024/01/23 10:07:44;;;;;;;42.03;7.47;;;6.80;99.90;;;;;;5115649;28;20055;-82
2024/01/23 10:10:16;;;;;;;50.75;8.00;;;6.90;99.90;;;;;;5114147;28;20383;-79
2024/01/23 10:12:44;;;;;;;46.90;7.60;;;7.00;99.90;;;;;;5115087;28;20135;-81
2024/01/23 10:15:12;;;;;;;51.17;8.45;;;7.10;99.90;;;;;;5115170;28;20039;-83
2024/01/23 10:17:38;;;;;;;33.35;6.82;;;7.20;99.90;;;;;;5113099;28;20055;-84
2024/01/23 10:20:06;;;;;;;46.10;8.15;;;7.30;99.90;;;;;;5114480;28;20048;-78
2024/01/23 10:22:33;;;;;;;40.67;7.30;;;7.40;99.90;;;;;;5115434;28;20058;-84
2024/01/23 10:24:59;;;;;;;35.15;6.90;;;7.40;99.90;;;;;;5114528;28;20055;-78
2024/01/23 10:27:28;;;;;;;37.65;7.53;;;7.40;99.90;;;;;;5112758;28;20379;-76
2024/01/23 10:29:54;;;;;;;34.40;7.20;;;7.50;99.90;;;;;;5113946;28;20051;-81
2024/01/23 10:32:22;;;;;;;43.55;8.93;;;7.60;99.90;;;;;;5114423;28;20070;-82
2024/01/23 10:34:52;;;;;;;42.50;7.28;;;7.70;99.90;;;;;;5114153;28;20065;-84
2024/01/23 10:37:19;;;;;;;38.60;7.45;;;7.80;99.90;;;;;;5114862;28;20047;-82
2024/01/23 10:39:45;;;;;;;55.78;8.13;;;7.80;99.90;;;;;;5114078;28;20046;-85
2024/01/23 10:42:12;;;;;;;51.30;7.97;;;7.90;99.90;;;;;;5113982;28;20127;-82
2024/01/23 10:44:40;;;;;;;40.60;7.43;;;8.00;99.90;;;;;;5113599;28;20059;-82
2024/01/23 10:47:05;;;;;;;48.40;7.20;;;8.10;99.90;;;;;;5116703;28;20073;-84
2024/01/23 10:49:31;;;;;;;47.78;8.15;;;8.10;99.90;;;;;;5112801;28;20476;-84
2024/01/23 10:52:03;;;;;;;51.22;9.27;;;8.20;99.90;;;;;;5127188;28;20072;-78
2024/01/23 10:54:31;;;;;;;36.13;7.80;;;8.20;99.90;;;;;;5132261;28;20134;-77
2024/01/23 10:57:04;;;;;;;37.92;6.88;;;8.20;99.90;;;;;;5131555;28;20109;-78
2024/01/23 10:59:30;;;;;;;24.17;5.50;;;8.30;99.90;;;;;;5131300;28;20043;-75
2024/01/23 11:02:05;;;;;;;33.42;6.47;;;8.40;99.90;;;;;;5126499;28;20052;-81
2024/01/23 11:04:31;;;;;;;37.38;7.22;;;8.70;99.90;;;;;;5118555;28;20047;-82
2024/01/23 11:07:03;;;;;;;37.03;7.03;;;8.60;99.90;;;;;;5113465;28;20067;-81
2024/01/23 11:09:55;;;;;;;41.17;6.70;;;8.80;99.90;;;;;;5113597;28;20047;-82
2024/01/23 11:12:40;;;;;;;32.47;7.13;;;8.80;99.90;;;;;;5075256;28;20538;-79
2024/01/23 11:15:14;;;;;;;41.47;7.95;;;8.70;99.90;;;;;;5113693;28;20139;-75
2024/01/23 11:17:40;;;;;;;48.13;7.38;;;8.60;99.90;;;;;;5113824;28;20047;-80
2024/01/23 11:20:13;;;;;;;59.00;9.10;;;8.50;99.90;;;;;;5111866;28;20047;-84
2024/01/23 11:22:39;;;;;;;39.47;8.63;;;8.50;99.90;;;;;;5113171;28;20047;-79
2024/01/23 11:25:05;;;;;;;38.17;8.07;;;8.80;99.90;;;;;;5111493;28;20058;-81
2024/01/23 11:27:33;;;;;;;40.13;7.82;;;8.90;99.90;;;;;;5112887;28;20051;-79
2024/01/23 11:29:59;;;;;;;42.35;6.78;;;8.90;99.90;;;;;;5111811;28;20044;-82
2024/01/23 11:32:28;;;;;;;33.20;5.63;;;8.90;99.90;;;;;;5113170;28;20043;-81
2024/01/23 11:35:11;;;;;;;33.25;6.10;;;8.90;99.90;;;;;;5113383;28;20395;-82
2024/01/23 11:37:53;;;;;;;32.22;7.22;;;8.90;99.90;;;;;;5113067;28;20477;-77
2024/01/23 11:40:25;;;;;;;44.33;6.82;;;9.20;99.90;;;;;;5113428;28;20043;-79
2024/01/23 11:42:51;;;;;;;31.05;6.25;;;9.30;99.90;;;;;;5113471;28;20051;-78
2024/01/23 11:45:29;;;;;;;46.33;8.40;;;9.30;99.90;;;;;;5113247;28;20048;-79
2024/01/23 11:47:56;;;;;;;34.38;6.25;;;9.40;99.90;;;;;;5111682;28;20070;-80
2024/01/23 11:50:23;;;;;;;35.28;5.72;;;9.50;99.90;;;;;;5111578;28;20164;-80
2024/01/23 11:52:54;;;;;;;36.13;5.80;;;9.30;99.90;;;;;;5112685;28;20051;-79
2024/01/23 11:55:20;;;;;;;36.97;7.22;;;8.90;99.90;;;;;;5112663;28;20116;-81
2024/01/23 11:58:13;;;;;;;30.48;6.72;;;8.70;99.90;;;;;;5111348;28;20043;-76
2024/01/23 12:00:38;;;;;;;27.33;5.22;;;8.60;99.90;;;;;;5108366;28;20112;-77
2024/01/23 12:03:11;;;;;;;40.88;8.30;;;8.60;99.90;;;;;;5112434;28;20047;-81
2024/01/23 12:05:36;;;;;;;27.65;5.43;;;8.80;99.90;;;;;;5110498;28;20051;-76
2024/01/23 12:08:03;;;;;;;31.17;6.57;;;9.00;99.90;;;;;;5111126;28;20052;-81
2024/01/23 12:10:29;;;;;;;30.00;5.68;;;9.00;99.90;;;;;;5110122;28;20062;-78
2024/01/23 12:12:58;;;;;;;31.45;6.18;;;8.90;99.90;;;;;;5110790;28;20055;-81
2024/01/23 12:15:24;;;;;;;34.35;5.75;;;8.80;99.90;;;;;;5112283;28;20046;-75
2024/01/23 12:17:50;;;;;;;35.85;5.97;;;8.80;99.90;;;;;;5111072;28;20482;-81
2024/01/23 12:20:16;;;;;;;31.65;5.93;;;8.90;99.90;;;;;;5112271;28;20074;-76
2024/01/23 12:22:42;;;;;;;30.40;7.22;;;9.50;99.90;;;;;;5110766;28;20487;-78
2024/01/23 12:25:10;;;;;;;29.10;5.45;;;9.90;99.90;;;;;;5112402;28;20075;-81
2024/01/23 12:27:36;;;;;;;36.22;7.32;;;10.40;99.90;;;;;;5111862;28;20049;-83
2024/01/23 12:30:03;;;;;;;28.55;6.60;;;10.90;99.90;;;;;;5112502;28;20118;-80
2024/01/23 12:32:29;;;;;;;31.48;8.02;;;11.10;99.90;;;;;;5112428;28;20047;-79
2024/01/23 12:34:56;;;;;;;27.95;7.70;;;11.00;99.90;;;;;;5110965;28;20070;-80
2024/01/23 12:37:29;;;;;;;33.42;7.03;;;11.00;99.90;;;;;;5110209;28;20051;-76
2024/01/23 12:39:58;;;;;;;27.65;6.63;;;10.70;99.90;;;;;;5112110;28;20473;-77
2024/01/23 12:42:24;;;;;;;33.92;5.72;;;9.90;99.90;;;;;;5110192;28;20055;-76